Time;durP1;ratioP1;P1;durP2;ratioP2;P2;SDS_P1;SDS_P2;PMS_P1;PMS_P2;Temp;Humidity;BMP_temperature;BMP_pressure;BME280_temperature;BME280_humidity;BME280_pressure;Samples;Min_cycle;Max_cycle;Signal;HPM_P1;HPM_P2
2022/10/15 00:01:22;;;;;;;;;15.50;15.50;;;;;;;;5039529;28;8849;-77
2022/10/15 00:03:49;;;;;;;;;12.25;11.50;;;;;;;;5049288;28;8946;-78
2022/10/15 00:06:19;;;;;;;;;17.50;16.75;;;;;;;;5052418;27;8865;-78
2022/10/15 00:08:49;;;;;;;;;9.25;9.00;;;;;;;;5048497;27;8996;-78
2022/10/15 00:11:18;;;;;;;;;15.50;14.75;;;;;;;;5047137;27;8852;-78
2022/10/15 00:13:46;;;;;;;;;14.25;14.25;;;;;;;;5057409;27;8831;-78
2022/10/15 00:16:16;;;;;;;;;11.25;11.25;;;;;;;;5064479;27;8858;-78
2022/10/15 00:18:44;;;;;;;;;15.00;13.00;;;;;;;;5046405;27;9621;-77
2022/10/15 00:21:14;;;;;;;;;13.75;13.50;;;;;;;;5040452;27;8929;-77
2022/10/15 00:23:41;;;;;;;;;15.50;11.75;;;;;;;;5052396;27;8853;-77
2022/10/15 00:26:13;;;;;;;;;12.25;12.25;;;;;;;;5049539;28;8838;-77
2022/10/15 00:28:40;;;;;;;;;23.00;17.75;;;;;;;;5028902;28;8834;-78
2022/10/15 00:31:10;;;;;;;;;16.75;14.75;;;;;;;;5070198;27;8827;-77
2022/10/15 00:33:38;;;;;;;;;12.50;12.25;;;;;;;;5036731;28;8864;-77
2022/10/15 00:36:07;;;;;;;;;17.00;16.00;;;;;;;;5054599;27;8847;-78
2022/10/15 00:38:35;;;;;;;;;13.50;13.50;;;;;;;;5036370;27;9606;-78
2022/10/15 00:41:04;;;;;;;;;13.00;12.00;;;;;;;;5038754;28;8841;-78
2022/10/15 00:43:51;;;;;;;;;17.25;17.00;;;;;;;;5073130;27;8851;-78
2022/10/15 00:46:27;;;;;;;;;14.00;12.75;;;;;;;;5102681;27;8855;-77
2022/10/15 00:48:57;;;;;;;;;14.00;12.25;;;;;;;;5057894;27;8819;-78
2022/10/15 00:51:30;;;;;;;;;14.25;13.00;;;;;;;;5020385;28;8865;-78
2022/10/15 00:53:57;;;;;;;;;11.25;11.25;;;;;;;;5088488;27;8893;-79
2022/10/15 00:56:26;;;;;;;;;14.75;14.25;;;;;;;;5046987;28;8877;-77
2022/10/15 00:58:56;;;;;;;;;11.75;9.25;;;;;;;;5069630;27;8831;-78
2022/10/15 01:01:25;;;;;;;;;11.75;9.75;;;;;;;;5048973;27;8851;-78
2022/10/15 01:03:53;;;;;;;;;11.25;9.25;;;;;;;;5066946;27;8854;-78
2022/10/15 01:06:20;;;;;;;;;16.00;12.25;;;;;;;;5053358;27;8827;-77
2022/10/15 01:08:48;;;;;;;;;12.50;10.50;;;;;;;;5055523;27;8957;-77
2022/10/15 01:11:29;;;;;;;;;10.50;10.50;;;;;;;;5058124;27;8823;-77
2022/10/15 01:14:06;;;;;;;;;9.25;9.25;;;;;;;;5052807;27;8867;-78
2022/10/15 01:16:39;;;;;;;;;12.00;9.50;;;;;;;;5071457;27;9622;-79
2022/10/15 01:19:11;;;;;;;;;8.50;8.50;;;;;;;;5027268;28;8872;-78
2022/10/15 01:21:42;;;;;;;;;8.50;8.50;;;;;;;;5050502;27;8859;-78
2022/10/15 01:24:41;;;;;;;;;8.50;7.00;;;;;;;;5056930;27;8849;-77
2022/10/15 01:27:22;;;;;;;;;9.50;9.50;;;;;;;;5053003;27;8839;-76
2022/10/15 01:30:24;;;;;;;;;7.75;6.75;;;;;;;;5113526;27;8829;-78
2022/10/15 01:33:14;;;;;;;;;7.75;7.75;;;;;;;;5069151;27;8847;-78
2022/10/15 01:35:49;;;;;;;;;7.25;6.00;;;;;;;;5041637;27;8865;-77
2022/10/15 01:38:23;;;;;;;;;8.00;6.50;;;;;;;;5058349;27;8823;-77
2022/10/15 01:40:55;;;;;;;;;7.00;6.75;;;;;;;;5055562;27;9457;-77
2022/10/15 01:43:28;;;;;;;;;7.00;7.00;;;;;;;;5049400;27;8863;-77
2022/10/15 01:45:57;;;;;;;;;5.00;5.00;;;;;;;;5058640;27;8851;-78
2022/10/15 01:48:28;;;;;;;;;7.75;7.25;;;;;;;;5055861;27;8849;-78
2022/10/15 01:51:01;;;;;;;;;8.50;6.75;;;;;;;;5061314;27;8996;-77
2022/10/15 01:53:29;;;;;;;;;7.50;6.50;;;;;;;;5072821;27;8847;-77
2022/10/15 01:55:59;;;;;;;;;7.00;5.50;;;;;;;;5070704;27;8843;-77
2022/10/15 01:58:28;;;;;;;;;6.00;6.00;;;;;;;;5059425;27;8843;-77
2022/10/15 02:00:57;;;;;;;;;6.50;6.50;;;;;;;;5062113;27;8841;-77
2022/10/15 02:03:27;;;;;;;;;7.25;7.25;;;;;;;;5067563;27;8819;-77
2022/10/15 02:06:00;;;;;;;;;7.50;7.50;;;;;;;;5034325;27;8852;-77
2022/10/15 02:08:34;;;;;;;;;7.25;7.25;;;;;;;;5043340;27;8848;-77
2022/10/15 02:11:06;;;;;;;;;6.50;6.50;;;;;;;;5022740;27;8851;-76
2022/10/15 02:13:42;;;;;;;;;9.75;5.00;;;;;;;;5069617;27;8854;-77
2022/10/15 02:16:14;;;;;;;;;8.75;7.00;;;;;;;;5043093;27;8837;-77
2022/10/15 02:18:49;;;;;;;;;7.50;6.25;;;;;;;;5064417;27;8808;-77
2022/10/15 02:21:19;;;;;;;;;4.25;3.00;;;;;;;;5058713;27;8882;-77
2022/10/15 02:23:53;;;;;;;;;5.00;5.00;;;;;;;;5029949;27;8839;-77
2022/10/15 02:26:24;;;;;;;;;7.00;6.50;;;;;;;;5043980;27;8848;-77
2022/10/15 02:28:54;;;;;;;;;5.75;5.75;;;;;;;;5111254;27;8867;-77
2022/10/15 02:31:24;;;;;;;;;6.25;6.25;;;;;;;;5032111;27;8847;-76
2022/10/15 02:33:58;;;;;;;;;7.00;7.00;;;;;;;;5055543;27;9669;-76
2022/10/15 02:36:26;;;;;;;;;5.25;5.25;;;;;;;;5083377;27;8870;-76
2022/10/15 02:38:56;;;;;;;;;5.25;5.25;;;;;;;;5063904;27;8896;-76
2022/10/15 02:41:27;;;;;;;;;7.25;7.25;;;;;;;;5046748;27;8819;-76
2022/10/15 02:43:54;;;;;;;;;7.25;7.25;;;;;;;;5039954;27;8861;-76
2022/10/15 02:46:22;;;;;;;;;8.50;7.00;;;;;;;;5067105;27;8861;-77
2022/10/15 02:48:49;;;;;;;;;6.00;6.00;;;;;;;;5044698;27;9672;-77
2022/10/15 02:51:18;;;;;;;;;8.00;7.00;;;;;;;;5037105;27;8857;-76
2022/10/15 02:53:46;;;;;;;;;6.75;5.75;;;;;;;;5043993;27;8887;-76
2022/10/15 02:56:13;;;;;;;;;7.00;6.50;;;;;;;;5029982;27;8833;-76
2022/10/15 02:58:41;;;;;;;;;8.75;8.75;;;;;;;;5065318;27;8968;-76
2022/10/15 03:01:09;;;;;;;;;6.25;6.25;;;;;;;;5028386;28;9764;-77
2022/10/15 03:03:36;;;;;;;;;7.25;7.00;;;;;;;;5043461;27;8859;-77
2022/10/15 03:06:04;;;;;;;;;4.75;4.75;;;;;;;;5060148;27;8863;-77
2022/10/15 03:08:33;;;;;;;;;6.00;6.00;;;;;;;;5054905;27;8933;-77
2022/10/15 03:11:01;;;;;;;;;12.00;8.25;;;;;;;;5068727;27;8915;-76
2022/10/15 03:13:29;;;;;;;;;7.00;5.75;;;;;;;;5066209;27;8839;-78
2022/10/15 03:15:57;;;;;;;;;6.75;6.75;;;;;;;;5056083;27;8831;-78
2022/10/15 03:18:27;;;;;;;;;6.75;6.75;;;;;;;;5075986;27;8946;-78
2022/10/15 03:20:55;;;;;;;;;10.75;10.75;;;;;;;;5034704;27;8880;-77
2022/10/15 03:23:26;;;;;;;;;6.50;6.50;;;;;;;;5029084;27;8862;-77
2022/10/15 03:26:01;;;;;;;;;11.50;11.50;;;;;;;;5041781;27;8871;-76
2022/10/15 03:28:28;;;;;;;;;11.25;11.25;;;;;;;;5042468;27;9666;-77
2022/10/15 03:30:56;;;;;;;;;8.50;8.50;;;;;;;;5050792;27;8853;-77
2022/10/15 03:33:27;;;;;;;;;12.25;11.25;;;;;;;;5070790;27;8846;-77
2022/10/15 03:35:56;;;;;;;;;12.50;12.50;;;;;;;;5026467;27;8911;-77
2022/10/15 03:38:26;;;;;;;;;9.00;9.00;;;;;;;;5057727;27;8945;-76
2022/10/15 03:40:54;;;;;;;;;6.75;6.75;;;;;;;;5069635;27;8861;-75
2022/10/15 03:43:25;;;;;;;;;9.00;9.00;;;;;;;;5078012;27;9631;-75
2022/10/15 03:45:52;;;;;;;;;7.75;7.75;;;;;;;;5051340;27;8835;-75
2022/10/15 03:48:20;;;;;;;;;10.75;8.00;;;;;;;;5054546;27;8823;-76
2022/10/15 03:50:48;;;;;;;;;9.50;9.50;;;;;;;;5037224;27;8832;-75
2022/10/15 03:53:15;;;;;;;;;11.50;9.25;;;;;;;;5045744;27;9818;-76
2022/10/15 03:55:43;;;;;;;;;6.50;6.50;;;;;;;;5055094;27;8850;-76
2022/10/15 03:58:11;;;;;;;;;8.50;8.50;;;;;;;;5041191;27;8877;-75
2022/10/15 04:00:41;;;;;;;;;11.00;9.75;;;;;;;;5035692;27;8850;-76
2022/10/15 04:03:09;;;;;;;;;8.00;8.00;;;;;;;;5056144;28;8826;-77
2022/10/15 04:05:36;;;;;;;;;7.00;7.00;;;;;;;;5048976;27;8847;-77
2022/10/15 04:08:04;;;;;;;;;8.75;8.00;;;;;;;;5060605;27;8851;-76
2022/10/15 04:10:31;;;;;;;;;8.00;6.00;;;;;;;;5055178;27;8837;-76
2022/10/15 04:12:59;;;;;;;;;6.00;6.00;;;;;;;;5046858;27;9012;-77
2022/10/15 04:15:27;;;;;;;;;11.00;9.00;;;;;;;;5058549;27;8850;-77
2022/10/15 04:17:56;;;;;;;;;6.75;6.75;;;;;;;;5052320;28;9616;-77
2022/10/15 04:20:26;;;;;;;;;8.00;7.00;;;;;;;;5025631;28;8825;-77
2022/10/15 04:22:53;;;;;;;;;7.25;7.25;;;;;;;;5037520;28;8986;-77
2022/10/15 04:25:21;;;;;;;;;8.25;8.25;;;;;;;;5038271;28;9000;-76
2022/10/15 04:27:48;;;;;;;;;12.00;7.25;;;;;;;;5051906;28;8841;-76
2022/10/15 04:30:16;;;;;;;;;7.25;5.50;;;;;;;;5043755;27;8861;-78
2022/10/15 04:32:44;;;;;;;;;5.50;5.00;;;;;;;;5051219;27;9410;-78
2022/10/15 04:35:13;;;;;;;;;5.75;5.75;;;;;;;;5070173;27;8834;-78
2022/10/15 04:37:41;;;;;;;;;4.00;4.00;;;;;;;;5045298;27;9679;-78
2022/10/15 04:40:10;;;;;;;;;5.00;5.00;;;;;;;;5063641;27;8845;-78
2022/10/15 04:42:39;;;;;;;;;3.75;3.75;;;;;;;;5037504;27;8805;-78
2022/10/15 04:45:08;;;;;;;;;2.00;2.00;;;;;;;;5044956;27;8833;-78
2022/10/15 04:47:35;;;;;;;;;2.00;2.00;;;;;;;;5033379;27;8837;-77
2022/10/15 04:50:03;;;;;;;;;4.00;2.00;;;;;;;;5057663;27;8862;-78
2022/10/15 04:52:32;;;;;;;;;1.50;1.50;;;;;;;;5062011;27;8833;-78
2022/10/15 04:55:01;;;;;;;;;1.75;1.75;;;;;;;;5028761;27;8857;-78
2022/10/15 04:57:29;;;;;;;;;0.50;0.50;;;;;;;;5065583;27;8989;-78
2022/10/15 04:59:56;;;;;;;;;2.00;1.00;;;;;;;;5043807;27;8843;-79
2022/10/15 05:02:26;;;;;;;;;0.00;0.00;;;;;;;;5037467;27;8831;-78
2022/10/15 05:04:55;;;;;;;;;0.50;0.25;;;;;;;;5078295;27;8862;-78
2022/10/15 05:07:23;;;;;;;;;0.00;0.00;;;;;;;;5074078;27;8833;-77
2022/10/15 05:09:52;;;;;;;;;1.00;1.00;;;;;;;;5045533;27;8855;-76
2022/10/15 05:12:20;;;;;;;;;1.00;1.00;;;;;;;;5013817;28;9198;-77
2022/10/15 05:14:48;;;;;;;;;1.00;1.00;;;;;;;;5046225;28;8858;-77
2022/10/15 05:17:16;;;;;;;;;2.00;2.00;;;;;;;;5014461;28;8853;-77
2022/10/15 05:19:43;;;;;;;;;2.50;1.00;;;;;;;;5045353;28;8872;-76
2022/10/15 05:22:11;;;;;;;;;1.25;1.00;;;;;;;;5018590;28;8853;-77
2022/10/15 05:24:38;;;;;;;;;1.00;1.00;;;;;;;;5030215;28;8839;-77
2022/10/15 05:27:07;;;;;;;;;2.75;2.00;;;;;;;;5027489;28;8868;-77
2022/10/15 05:29:35;;;;;;;;;1.00;1.00;;;;;;;;5016670;28;8852;-77
2022/10/15 05:32:02;;;;;;;;;0.00;0.00;;;;;;;;5028516;28;8981;-77
2022/10/15 05:34:29;;;;;;;;;1.00;1.00;;;;;;;;5047077;28;9708;-77
2022/10/15 05:36:57;;;;;;;;;1.00;1.00;;;;;;;;5038211;28;8851;-77
2022/10/15 05:39:25;;;;;;;;;0.25;0.25;;;;;;;;5032287;28;8897;-77
2022/10/15 05:41:53;;;;;;;;;1.75;1.75;;;;;;;;5018686;28;8983;-77
2022/10/15 05:44:22;;;;;;;;;2.00;0.75;;;;;;;;5047127;28;8824;-77
2022/10/15 05:46:50;;;;;;;;;2.00;2.00;;;;;;;;5049339;28;9622;-78
2022/10/15 05:49:18;;;;;;;;;1.00;1.00;;;;;;;;5011016;28;8862;-77
2022/10/15 05:51:45;;;;;;;;;0.50;0.50;;;;;;;;5004491;28;8985;-78
2022/10/15 05:54:13;;;;;;;;;1.00;1.00;;;;;;;;5044504;28;8837;-77
2022/10/15 05:56:40;;;;;;;;;1.75;1.75;;;;;;;;5021307;28;8835;-77
2022/10/15 05:59:08;;;;;;;;;1.00;1.00;;;;;;;;5018693;28;8872;-77
2022/10/15 06:01:37;;;;;;;;;0.50;0.50;;;;;;;;5036384;28;8982;-79
2022/10/15 06:04:05;;;;;;;;;0.75;0.75;;;;;;;;5019429;28;8881;-77
2022/10/15 06:06:33;;;;;;;;;1.00;1.00;;;;;;;;5025171;28;8870;-79
2022/10/15 06:09:00;;;;;;;;;0.00;0.00;;;;;;;;5035109;28;8881;-76
2022/10/15 06:11:28;;;;;;;;;0.25;0.25;;;;;;;;5038389;27;8830;-78
2022/10/15 06:13:56;;;;;;;;;0.00;0.00;;;;;;;;5020211;27;8837;-79
2022/10/15 06:16:24;;;;;;;;;0.00;0.00;;;;;;;;5044968;27;8846;-77
2022/10/15 06:18:53;;;;;;;;;0.00;0.00;;;;;;;;5053086;27;9711;-77
2022/10/15 06:21:27;;;;;;;;;0.00;0.00;;;;;;;;5075992;27;8842;-77
2022/10/15 06:23:57;;;;;;;;;0.00;0.00;;;;;;;;5049401;27;8973;-79
2022/10/15 06:26:25;;;;;;;;;0.00;0.00;;;;;;;;5079520;27;8967;-78
2022/10/15 06:28:52;;;;;;;;;0.75;0.75;;;;;;;;5037414;27;8933;-77
2022/10/15 06:31:19;;;;;;;;;0.00;0.00;;;;;;;;5026879;27;8827;-77
2022/10/15 06:33:47;;;;;;;;;1.00;1.00;;;;;;;;5063195;27;8987;-79
2022/10/15 06:36:16;;;;;;;;;0.00;0.00;;;;;;;;5036127;27;9666;-79
2022/10/15 06:38:44;;;;;;;;;1.00;1.00;;;;;;;;5038579;27;8869;-79
2022/10/15 06:41:12;;;;;;;;;0.50;0.50;;;;;;;;5038498;27;8837;-79
2022/10/15 06:43:40;;;;;;;;;1.00;1.00;;;;;;;;5064771;27;8845;-79
2022/10/15 06:46:08;;;;;;;;;0.00;0.00;;;;;;;;5015952;27;8943;-79
2022/10/15 06:48:36;;;;;;;;;2.25;0.00;;;;;;;;5036567;28;8974;-81
2022/10/15 06:51:04;;;;;;;;;0.00;0.00;;;;;;;;5062239;27;8871;-79
2022/10/15 06:53:33;;;;;;;;;0.25;0.25;;;;;;;;5036783;27;9536;-76
2022/10/15 06:56:02;;;;;;;;;0.00;0.00;;;;;;;;5061700;27;8837;-75
2022/10/15 06:58:29;;;;;;;;;1.75;0.50;;;;;;;;5057597;27;8862;-76
2022/10/15 07:01:00;;;;;;;;;2.00;0.50;;;;;;;;5051810;27;8937;-76
2022/10/15 07:03:28;;;;;;;;;1.50;1.50;;;;;;;;5059669;27;8846;-76
2022/10/15 07:05:55;;;;;;;;;2.00;2.00;;;;;;;;5062316;27;8876;-74
2022/10/15 07:08:25;;;;;;;;;1.75;0.75;;;;;;;;5085471;27;8901;-76
2022/10/15 07:10:54;;;;;;;;;0.00;0.00;;;;;;;;5025999;27;8853;-76
2022/10/15 07:13:21;;;;;;;;;1.75;1.75;;;;;;;;5031030;27;8863;-75
2022/10/15 07:15:52;;;;;;;;;1.75;1.75;;;;;;;;5048166;27;8953;-76
2022/10/15 07:18:20;;;;;;;;;1.75;1.75;;;;;;;;5058100;27;8815;-76
2022/10/15 07:20:47;;;;;;;;;1.00;1.00;;;;;;;;5073929;27;8842;-75
2022/10/15 07:23:14;;;;;;;;;0.75;0.75;;;;;;;;5031350;27;8933;-76
2022/10/15 07:25:42;;;;;;;;;1.00;1.00;;;;;;;;5039206;27;8849;-75
2022/10/15 07:28:11;;;;;;;;;2.00;1.00;;;;;;;;5082028;27;8832;-75
2022/10/15 07:30:38;;;;;;;;;1.00;1.00;;;;;;;;5038349;27;8851;-75
2022/10/15 07:33:06;;;;;;;;;0.25;0.25;;;;;;;;5063085;27;8878;-76
2022/10/15 07:35:34;;;;;;;;;0.00;0.00;;;;;;;;5029198;27;8868;-76
2022/10/15 07:38:01;;;;;;;;;0.00;0.00;;;;;;;;5056995;27;8848;-76
2022/10/15 07:40:29;;;;;;;;;1.00;0.00;;;;;;;;5053618;27;8834;-76
2022/10/15 07:42:58;;;;;;;;;1.00;0.00;;;;;;;;5043284;27;8920;-76
2022/10/15 07:45:28;;;;;;;;;0.00;0.00;;;;;;;;5033299;27;9977;-77
2022/10/15 07:47:55;;;;;;;;;0.00;0.00;;;;;;;;5052446;27;8827;-77
2022/10/15 07:50:23;;;;;;;;;0.00;0.00;;;;;;;;5075131;27;8884;-77
2022/10/15 07:52:50;;;;;;;;;0.00;0.00;;;;;;;;5040621;28;8849;-76
2022/10/15 07:55:18;;;;;;;;;0.00;0.00;;;;;;;;5045070;27;8856;-75
2022/10/15 07:57:45;;;;;;;;;0.00;0.00;;;;;;;;5041965;27;9616;-77
2022/10/15 08:00:14;;;;;;;;;0.00;0.00;;;;;;;;5030438;27;8964;-76
2022/10/15 08:02:44;;;;;;;;;0.00;0.00;;;;;;;;5018671;28;8845;-76
2022/10/15 08:05:11;;;;;;;;;0.00;0.00;;;;;;;;5043658;27;8842;-80
2022/10/15 08:07:40;;;;;;;;;0.00;0.00;;;;;;;;5031648;27;8913;-76
2022/10/15 08:10:08;;;;;;;;;1.20;0.20;;;;;;;;5046795;27;8849;-79
2022/10/15 08:12:40;;;;;;;;;0.00;0.00;;;;;;;;5045578;27;8876;-84
2022/10/15 08:15:08;;;;;;;;;0.00;0.00;;;;;;;;5056111;27;9009;-84
2022/10/15 08:17:35;;;;;;;;;0.00;0.00;;;;;;;;5061562;27;8847;-81
2022/10/15 08:20:06;;;;;;;;;0.00;0.00;;;;;;;;5027154;27;8883;-78
2022/10/15 08:22:34;;;;;;;;;0.00;0.00;;;;;;;;5066157;27;8847;-83
2022/10/15 08:25:02;;;;;;;;;0.40;0.40;;;;;;;;5046648;27;8987;-78
2022/10/15 08:27:29;;;;;;;;;0.00;0.00;;;;;;;;5043742;27;8901;-78
2022/10/15 08:29:57;;;;;;;;;0.00;0.00;;;;;;;;5039022;27;8945;-78
2022/10/15 08:32:25;;;;;;;;;0.00;0.00;;;;;;;;5038212;27;8965;-77
2022/10/15 08:34:53;;;;;;;;;0.00;0.00;;;;;;;;5053003;27;8847;-78
2022/10/15 08:37:21;;;;;;;;;0.00;0.00;;;;;;;;5044312;27;8855;-78
2022/10/15 08:39:49;;;;;;;;;0.00;0.00;;;;;;;;5053099;27;8876;-78
2022/10/15 08:42:21;;;;;;;;;0.00;0.00;;;;;;;;5046288;27;8873;-76
2022/10/15 08:44:53;;;;;;;;;0.00;0.00;;;;;;;;5067751;27;8843;-77
2022/10/15 08:47:29;;;;;;;;;0.40;0.40;;;;;;;;5040184;27;8934;-77
2022/10/15 08:49:59;;;;;;;;;0.00;0.00;;;;;;;;5037974;27;9622;-76
2022/10/15 08:52:39;;;;;;;;;0.00;0.00;;;;;;;;5051316;27;8847;-77
2022/10/15 08:55:09;;;;;;;;;0.00;0.00;;;;;;;;5045175;27;8867;-76
2022/10/15 08:57:40;;;;;;;;;0.00;0.00;;;;;;;;5052727;27;8855;-76
2022/10/15 09:00:16;;;;;;;;;0.00;0.00;;;;;;;;5043122;27;8873;-76
2022/10/15 09:02:47;;;;;;;;;0.00;0.00;;;;;;;;5046918;27;9003;-79
2022/10/15 09:05:28;;;;;;;;;0.00;0.00;;;;;;;;5046486;27;8857;-82
2022/10/15 09:08:01;;;;;;;;;0.00;0.00;;;;;;;;5050529;27;8818;-82
2022/10/15 09:10:35;;;;;;;;;0.00;0.00;;;;;;;;5056412;27;8825;-81
2022/10/15 09:13:04;;;;;;;;;0.00;0.00;;;;;;;;5052104;27;8957;-81
2022/10/15 09:15:37;;;;;;;;;0.00;0.00;;;;;;;;5046064;27;8853;-80
2022/10/15 09:18:05;;;;;;;;;0.00;0.00;;;;;;;;5029559;27;8991;-76
2022/10/15 09:20:34;;;;;;;;;1.00;0.00;;;;;;;;5064891;27;8978;-74
2022/10/15 09:23:04;;;;;;;;;0.00;0.00;;;;;;;;5058088;27;8853;-76
2022/10/15 09:25:36;;;;;;;;;0.00;0.00;;;;;;;;5054310;27;8823;-80
2022/10/15 09:28:10;;;;;;;;;0.00;0.00;;;;;;;;5053351;27;8873;-79
2022/10/15 09:30:44;;;;;;;;;0.00;0.00;;;;;;;;5032519;28;8908;-77
2022/10/15 09:33:18;;;;;;;;;0.00;0.00;;;;;;;;5058761;27;8962;-74
2022/10/15 09:35:49;;;;;;;;;0.00;0.00;;;;;;;;5070888;27;8839;-74
2022/10/15 09:38:27;;;;;;;;;0.00;0.00;;;;;;;;5047682;27;8869;-76
2022/10/15 09:41:05;;;;;;;;;0.00;0.00;;;;;;;;5051570;27;8952;-75
2022/10/15 09:43:36;;;;;;;;;0.00;0.00;;;;;;;;5048632;27;9012;-74
2022/10/15 09:46:04;;;;;;;;;0.00;0.00;;;;;;;;5063085;27;8851;-73
2022/10/15 09:48:35;;;;;;;;;0.00;0.00;;;;;;;;5069870;27;8867;-72
2022/10/15 09:51:06;;;;;;;;;0.00;0.00;;;;;;;;5045492;27;8869;-73
2022/10/15 09:53:45;;;;;;;;;0.00;0.00;;;;;;;;5044819;27;8871;-72
2022/10/15 09:56:15;;;;;;;;;0.00;0.00;;;;;;;;5049995;27;8875;-74
2022/10/15 09:58:50;;;;;;;;;0.00;0.00;;;;;;;;5064350;27;8858;-74
2022/10/15 10:01:19;;;;;;;;;0.00;0.00;;;;;;;;5035071;27;8818;-75
2022/10/15 10:03:51;;;;;;;;;0.00;0.00;;;;;;;;5056958;27;8833;-75
2022/10/15 10:06:18;;;;;;;;;0.00;0.00;;;;;;;;5087249;27;8839;-76
2022/10/15 10:08:52;;;;;;;;;0.00;0.00;;;;;;;;5032258;27;8882;-74
2022/10/15 10:11:20;;;;;;;;;0.00;0.00;;;;;;;;5032599;27;8951;-75
2022/10/15 10:13:52;;;;;;;;;0.60;0.00;;;;;;;;5046865;27;8857;-74
2022/10/15 10:16:21;;;;;;;;;0.00;0.00;;;;;;;;5045792;27;8988;-75
2022/10/15 10:19:04;;;;;;;;;0.00;0.00;;;;;;;;5048486;27;8819;-75
2022/10/15 10:21:34;;;;;;;;;0.00;0.00;;;;;;;;5075350;27;8849;-74
2022/10/15 10:24:24;;;;;;;;;0.00;0.00;;;;;;;;5044706;27;8874;-74
2022/10/15 10:26:51;;;;;;;;;0.00;0.00;;;;;;;;5027917;27;8873;-73
2022/10/15 10:29:20;;;;;;;;;0.00;0.00;;;;;;;;5040750;27;8845;-74
2022/10/15 10:31:50;;;;;;;;;0.00;0.00;;;;;;;;5058293;27;8936;-75
2022/10/15 10:34:21;;;;;;;;;0.20;0.00;;;;;;;;5061654;27;8860;-74
2022/10/15 10:36:50;;;;;;;;;0.00;0.00;;;;;;;;5039050;27;8821;-74
2022/10/15 10:39:26;;;;;;;;;0.00;0.00;;;;;;;;5055320;27;9011;-74
2022/10/15 10:41:55;;;;;;;;;0.00;0.00;;;;;;;;5034046;27;8856;-73
2022/10/15 10:44:28;;;;;;;;;0.00;0.00;;;;;;;;5032347;27;8874;-75
2022/10/15 10:47:10;;;;;;;;;0.00;0.00;;;;;;;;5024849;27;8959;-72
2022/10/15 10:49:39;;;;;;;;;0.00;0.00;;;;;;;;5056262;27;8843;-74
2022/10/15 10:52:12;;;;;;;;;0.00;0.00;;;;;;;;5040726;27;8857;-73
2022/10/15 10:54:42;;;;;;;;;0.00;0.00;;;;;;;;5064810;27;8871;-73
2022/10/15 10:57:13;;;;;;;;;0.00;0.00;;;;;;;;5030024;27;8873;-73
2022/10/15 10:59:48;;;;;;;;;0.00;0.00;;;;;;;;5029877;27;8874;-74
2022/10/15 11:02:16;;;;;;;;;0.00;0.00;;;;;;;;5041153;27;8979;-74
2022/10/15 11:04:43;;;;;;;;;0.00;0.00;;;;;;;;5042164;27;8825;-74
2022/10/15 11:07:16;;;;;;;;;0.00;0.00;;;;;;;;5043232;27;8843;-79
2022/10/15 11:09:56;;;;;;;;;1.00;1.00;;;;;;;;5026648;27;9680;-76
2022/10/15 11:12:31;;;;;;;;;0.20;0.20;;;;;;;;5041519;27;8837;-75
2022/10/15 11:15:06;;;;;;;;;0.00;0.00;;;;;;;;5043032;27;8853;-75
2022/10/15 11:17:46;;;;;;;;;0.00;0.00;;;;;;;;5044598;27;9430;-75
2022/10/15 11:20:20;;;;;;;;;0.00;0.00;;;;;;;;5037449;27;8907;-75
2022/10/15 11:22:56;;;;;;;;;0.00;0.00;;;;;;;;5047634;27;8845;-76
2022/10/15 11:25:31;;;;;;;;;0.00;0.00;;;;;;;;5039417;27;8864;-75
2022/10/15 11:28:19;;;;;;;;;0.00;0.00;;;;;;;;5029327;27;8853;-75
2022/10/15 11:30:52;;;;;;;;;0.00;0.00;;;;;;;;5073263;27;9659;-76
2022/10/15 11:33:44;;;;;;;;;0.20;0.20;;;;;;;;5036794;28;8878;-75
2022/10/15 11:36:42;;;;;;;;;0.60;0.60;;;;;;;;5025766;28;8863;-76
2022/10/15 11:39:31;;;;;;;;;0.00;0.00;;;;;;;;5055494;27;8853;-77
2022/10/15 11:42:05;;;;;;;;;0.00;0.00;;;;;;;;5025562;27;8843;-76
2022/10/15 11:44:40;;;;;;;;;1.00;0.00;;;;;;;;5033758;27;8979;-74
2022/10/15 11:47:28;;;;;;;;;0.00;0.00;;;;;;;;5044472;27;8873;-76
2022/10/15 11:50:07;;;;;;;;;0.00;0.00;;;;;;;;5069011;27;8830;-77
2022/10/15 11:52:49;;;;;;;;;0.00;0.00;;;;;;;;5035111;27;8869;-76
2022/10/15 11:55:20;;;;;;;;;1.00;1.00;;;;;;;;5124519;27;8857;-77
2022/10/15 11:57:51;;;;;;;;;0.00;0.00;;;;;;;;5035840;27;8855;-77
2022/10/15 12:00:31;;;;;;;;;0.00;0.00;;;;;;;;5074024;27;8949;-77
2022/10/15 12:03:05;;;;;;;;;0.00;0.00;;;;;;;;5057758;27;8890;-76
2022/10/15 12:05:35;;;;;;;;;0.00;0.00;;;;;;;;5050440;27;9623;-76
2022/10/15 12:08:04;;;;;;;;;0.00;0.00;;;;;;;;5054181;27;9615;-76
2022/10/15 12:10:52;;;;;;;;;0.00;0.00;;;;;;;;5073782;28;8831;-77
2022/10/15 12:13:26;;;;;;;;;0.00;0.00;;;;;;;;5058806;27;8967;-75
2022/10/15 12:16:00;;;;;;;;;1.00;0.00;;;;;;;;5092373;27;8831;-75
2022/10/15 12:18:33;;;;;;;;;0.00;0.00;;;;;;;;5056679;27;8835;-76
2022/10/15 12:21:01;;;;;;;;;0.00;0.00;;;;;;;;5050606;27;8959;-76
2022/10/15 12:23:41;;;;;;;;;0.00;0.00;;;;;;;;5073017;28;8849;-76
2022/10/15 12:26:30;;;;;;;;;0.00;0.00;;;;;;;;5069044;28;9593;-76
2022/10/15 12:29:02;;;;;;;;;0.00;0.00;;;;;;;;5057075;28;8825;-76
2022/10/15 12:31:47;;;;;;;;;0.00;0.00;;;;;;;;5045060;27;8842;-77
2022/10/15 12:34:38;;;;;;;;;1.00;0.00;;;;;;;;5042025;27;9619;-76
2022/10/15 12:37:09;;;;;;;;;0.00;0.00;;;;;;;;5054088;27;8865;-76
2022/10/15 12:39:39;;;;;;;;;0.00;0.00;;;;;;;;5054423;27;8845;-76
2022/10/15 12:42:19;;;;;;;;;0.00;0.00;;;;;;;;5068543;27;8938;-76
2022/10/15 12:44:50;;;;;;;;;0.00;0.00;;;;;;;;5124632;27;8845;-76
2022/10/15 12:47:46;;;;;;;;;0.00;0.00;;;;;;;;5063955;27;8835;-75
2022/10/15 12:50:18;;;;;;;;;0.00;0.00;;;;;;;;5026728;28;8849;-76
2022/10/15 12:52:55;;;;;;;;;0.00;0.00;;;;;;;;5042050;27;8966;-76
2022/10/15 12:55:30;;;;;;;;;0.00;0.00;;;;;;;;5066544;27;8894;-76
2022/10/15 12:58:01;;;;;;;;;0.00;0.00;;;;;;;;5041422;27;9639;-75
2022/10/15 13:00:42;;;;;;;;;0.00;0.00;;;;;;;;5074799;27;8837;-75
2022/10/15 13:03:22;;;;;;;;;0.00;0.00;;;;;;;;5048575;27;9608;-75
2022/10/15 13:05:50;;;;;;;;;1.00;0.00;;;;;;;;5046809;27;8827;-76
2022/10/15 13:08:22;;;;;;;;;0.00;0.00;;;;;;;;5080954;27;8872;-76
2022/10/15 13:10:52;;;;;;;;;1.00;0.00;;;;;;;;5068571;27;8850;-75
2022/10/15 13:13:22;;;;;;;;;0.00;0.00;;;;;;;;5057797;27;8841;-76
2022/10/15 13:16:09;;;;;;;;;0.20;0.00;;;;;;;;5064050;27;8834;-76
2022/10/15 13:18:36;;;;;;;;;0.00;0.00;;;;;;;;5054851;27;8859;-76
2022/10/15 13:21:04;;;;;;;;;0.00;0.00;;;;;;;;5069141;27;8853;-75
2022/10/15 13:23:33;;;;;;;;;0.00;0.00;;;;;;;;5071392;27;8839;-76
2022/10/15 13:26:17;;;;;;;;;0.00;0.00;;;;;;;;5085278;27;8811;-75
2022/10/15 13:28:45;;;;;;;;;0.00;0.00;;;;;;;;5065254;27;8865;-75
2022/10/15 13:31:22;;;;;;;;;0.00;0.00;;;;;;;;5081153;27;8875;-75
2022/10/15 13:33:51;;;;;;;;;0.00;0.00;;;;;;;;5041441;27;8829;-76
2022/10/15 13:36:22;;;;;;;;;0.00;0.00;;;;;;;;5058274;27;8837;-76
2022/10/15 13:38:56;;;;;;;;;0.00;0.00;;;;;;;;5069965;27;8838;-76
2022/10/15 13:41:26;;;;;;;;;0.00;0.00;;;;;;;;5057800;27;8841;-76
2022/10/15 13:43:57;;;;;;;;;0.00;0.00;;;;;;;;5067748;27;9587;-76
2022/10/15 13:46:27;;;;;;;;;0.00;0.00;;;;;;;;5064261;27;8853;-76
2022/10/15 13:48:59;;;;;;;;;0.00;0.00;;;;;;;;5022192;28;9916;-75
2022/10/15 13:51:33;;;;;;;;;0.00;0.00;;;;;;;;5045579;27;8847;-75
2022/10/15 13:54:03;;;;;;;;;0.00;0.00;;;;;;;;5062554;27;8889;-76
2022/10/15 13:56:32;;;;;;;;;0.00;0.00;;;;;;;;5041793;27;8873;-75
2022/10/15 13:59:01;;;;;;;;;0.00;0.00;;;;;;;;5041260;27;8853;-76
2022/10/15 14:01:33;;;;;;;;;0.00;0.00;;;;;;;;5069957;27;8829;-75
2022/10/15 14:04:02;;;;;;;;;0.00;0.00;;;;;;;;5042793;27;8893;-75
2022/10/15 14:06:31;;;;;;;;;0.00;0.00;;;;;;;;5026304;27;8854;-75
2022/10/15 14:09:00;;;;;;;;;0.00;0.00;;;;;;;;5055721;27;8937;-76
2022/10/15 14:11:29;;;;;;;;;0.00;0.00;;;;;;;;5078750;27;8839;-76
2022/10/15 14:13:58;;;;;;;;;0.00;0.00;;;;;;;;5045400;27;8980;-75
2022/10/15 14:16:30;;;;;;;;;0.00;0.00;;;;;;;;5060622;27;8831;-75
2022/10/15 14:19:07;;;;;;;;;0.00;0.00;;;;;;;;5065996;27;8859;-76
2022/10/15 14:21:36;;;;;;;;;0.00;0.00;;;;;;;;5038183;27;8914;-75
2022/10/15 14:24:05;;;;;;;;;0.00;0.00;;;;;;;;5037086;27;8954;-76
2022/10/15 14:26:33;;;;;;;;;0.20;0.00;;;;;;;;5050194;27;8850;-75
2022/10/15 14:29:01;;;;;;;;;0.00;0.00;;;;;;;;5027794;27;8873;-75
2022/10/15 14:31:48;;;;;;;;;0.00;0.00;;;;;;;;5029801;27;8963;-75
2022/10/15 14:34:30;;;;;;;;;0.00;0.00;;;;;;;;5036854;27;8857;-75
2022/10/15 14:36:58;;;;;;;;;0.00;0.00;;;;;;;;5087435;27;8855;-76
2022/10/15 14:39:30;;;;;;;;;0.00;0.00;;;;;;;;5059022;27;8845;-76
2022/10/15 14:41:59;;;;;;;;;0.00;0.00;;;;;;;;5044384;27;8842;-75
2022/10/15 14:44:39;;;;;;;;;0.00;0.00;;;;;;;;5039322;27;8841;-75
2022/10/15 14:47:20;;;;;;;;;0.00;0.00;;;;;;;;5044492;27;8895;-75
2022/10/15 14:49:48;;;;;;;;;0.00;0.00;;;;;;;;5040828;27;8873;-75
2022/10/15 14:52:19;;;;;;;;;0.00;0.00;;;;;;;;5054958;27;8857;-76
2022/10/15 14:54:56;;;;;;;;;0.00;0.00;;;;;;;;5015147;27;8875;-75
2022/10/15 14:57:25;;;;;;;;;0.00;0.00;;;;;;;;5050460;27;8819;-76
2022/10/15 14:59:53;;;;;;;;;1.20;0.00;;;;;;;;5057413;27;8958;-75
2022/10/15 15:02:25;;;;;;;;;0.00;0.00;;;;;;;;5056739;27;8838;-75
2022/10/15 15:05:04;;;;;;;;;0.00;0.00;;;;;;;;5054026;27;8891;-75
2022/10/15 15:07:32;;;;;;;;;0.00;0.00;;;;;;;;5037565;27;8973;-75
2022/10/15 15:09:59;;;;;;;;;0.00;0.00;;;;;;;;5044180;27;8856;-76
2022/10/15 15:12:27;;;;;;;;;2.40;2.20;;;;;;;;5065020;27;8853;-76
2022/10/15 15:14:55;;;;;;;;;1.00;1.00;;;;;;;;5046546;27;8853;-75
2022/10/15 15:17:25;;;;;;;;;1.40;0.00;;;;;;;;5064274;27;8868;-76